sensor_id;sensor_type;location;lat;lon;timestamp;temperature;humidity
15630;DHT22;7914;50.842;0.166;2023-04-12T00:00:25;8.20;100.00
15630;DHT22;7914;50.842;0.166;2023-04-12T00:02:51;8.30;100.00
15630;DHT22;7914;50.842;0.166;2023-04-12T00:05:21;8.30;100.00
15630;DHT22;7914;50.842;0.166;2023-04-12T00:07:50;8.40;100.00
15630;DHT22;7914;50.842;0.166;2023-04-12T00:10:18;8.40;100.00
15630;DHT22;7914;50.842;0.166;2023-04-12T00:12:44;8.50;100.00
15630;DHT22;7914;50.842;0.166;2023-04-12T00:15:10;8.50;100.00
15630;DHT22;7914;50.842;0.166;2023-04-12T00:17:36;8.50;100.00
15630;DHT22;7914;50.842;0.166;2023-04-12T00:20:02;8.50;100.00
15630;DHT22;7914;50.842;0.166;2023-04-12T00:22:35;8.60;100.00
15630;DHT22;7914;50.842;0.166;2023-04-12T00:25:01;8.60;100.00
15630;DHT22;7914;50.842;0.166;2023-04-12T00:27:27;8.60;100.00
15630;DHT22;7914;50.842;0.166;2023-04-12T00:29:53;8.60;100.00
15630;DHT22;7914;50.842;0.166;2023-04-12T00:32:18;8.60;100.00
15630;DHT22;7914;50.842;0.166;2023-04-12T00:34:44;8.60;100.00
15630;DHT22;7914;50.842;0.166;2023-04-12T00:37:10;8.60;100.00
15630;DHT22;7914;50.842;0.166;2023-04-12T00:39:36;8.60;100.00
15630;DHT22;7914;50.842;0.166;2023-04-12T00:42:05;8.60;100.00
15630;DHT22;7914;50.842;0.166;2023-04-12T00:44:32;8.70;100.00
15630;DHT22;7914;50.842;0.166;2023-04-12T00:46:58;8.70;100.00
15630;DHT22;7914;50.842;0.166;2023-04-12T00:49:26;8.70;100.00
15630;DHT22;7914;50.842;0.166;2023-04-12T00:52:00;8.70;100.00
15630;DHT22;7914;50.842;0.166;2023-04-12T00:54:37;8.60;100.00
15630;DHT22;7914;50.842;0.166;2023-04-12T00:57:04;8.60;100.00
15630;DHT22;7914;50.842;0.166;2023-04-12T00:59:30;8.60;100.00
15630;DHT22;7914;50.842;0.166;2023-04-12T01:01:56;8.60;100.00
15630;DHT22;7914;50.842;0.166;2023-04-12T01:04:22;8.60;100.00
15630;DHT22;7914;50.842;0.166;2023-04-12T01:17:29;8.40;100.00
15630;DHT22;7914;50.842;0.166;2023-04-12T01:20:17;8.40;100.00
15630;DHT22;7914;50.842;0.166;2023-04-12T01:25:44;8.50;100.00
15630;DHT22;7914;50.842;0.166;2023-04-12T01:28:21;8.50;100.00
15630;DHT22;7914;50.842;0.166;2023-04-12T01:30:50;8.50;100.00
15630;DHT22;7914;50.842;0.166;2023-04-12T01:33:16;8.50;100.00
15630;DHT22;7914;50.842;0.166;2023-04-12T01:35:43;8.60;100.00
15630;DHT22;7914;50.842;0.166;2023-04-12T01:38:10;8.60;100.00
15630;DHT22;7914;50.842;0.166;2023-04-12T01:40:35;8.60;100.00
15630;DHT22;7914;50.842;0.166;2023-04-12T01:43:09;8.60;100.00
15630;DHT22;7914;50.842;0.166;2023-04-12T01:45:36;8.70;100.00
15630;DHT22;7914;50.842;0.166;2023-04-12T01:48:03;8.70;100.00
15630;DHT22;7914;50.842;0.166;2023-04-12T01:50:50;8.70;100.00
15630;DHT22;7914;50.842;0.166;2023-04-12T01:53:30;8.70;100.00
15630;DHT22;7914;50.842;0.166;2023-04-12T01:55:59;8.70;100.00
15630;DHT22;7914;50.842;0.166;2023-04-12T01:58:29;8.70;100.00
15630;DHT22;7914;50.842;0.166;2023-04-12T02:00:56;8.60;98.90
15630;DHT22;7914;50.842;0.166;2023-04-12T02:03:23;8.70;98.20
15630;DHT22;7914;50.842;0.166;2023-04-12T02:05:50;8.60;98.30
15630;DHT22;7914;50.842;0.166;2023-04-12T02:08:16;8.60;98.10
15630;DHT22;7914;50.842;0.166;2023-04-12T02:10:42;8.60;96.70
15630;DHT22;7914;50.842;0.166;2023-04-12T02:13:08;8.60;96.20
15630;DHT22;7914;50.842;0.166;2023-04-12T02:15:33;8.50;94.80
15630;DHT22;7914;50.842;0.166;2023-04-12T02:18:01;8.40;94.10
15630;DHT22;7914;50.842;0.166;2023-04-12T02:20:28;8.40;94.30
15630;DHT22;7914;50.842;0.166;2023-04-12T02:22:53;8.40;94.20
15630;DHT22;7914;50.842;0.166;2023-04-12T02:25:19;8.40;95.00
15630;DHT22;7914;50.842;0.166;2023-04-12T02:27:45;8.40;95.10
15630;DHT22;7914;50.842;0.166;2023-04-12T02:30:13;8.40;95.30
15630;DHT22;7914;50.842;0.166;2023-04-12T02:32:40;8.40;95.90
15630;DHT22;7914;50.842;0.166;2023-04-12T02:35:12;8.30;96.00
15630;DHT22;7914;50.842;0.166;2023-04-12T02:37:39;8.30;95.70
15630;DHT22;7914;50.842;0.166;2023-04-12T02:40:05;8.20;93.60
15630;DHT22;7914;50.842;0.166;2023-04-12T02:42:34;8.00;92.70
15630;DHT22;7914;50.842;0.166;2023-04-12T02:45:00;8.00;90.00
15630;DHT22;7914;50.842;0.166;2023-04-12T02:47:25;8.00;88.30
15630;DHT22;7914;50.842;0.166;2023-04-12T02:49:54;8.10;88.60
15630;DHT22;7914;50.842;0.166;2023-04-12T02:52:19;8.10;88.60
15630;DHT22;7914;50.842;0.166;2023-04-12T02:54:45;8.00;88.90
15630;DHT22;7914;50.842;0.166;2023-04-12T02:57:11;8.00;89.30
15630;DHT22;7914;50.842;0.166;2023-04-12T02:59:38;8.00;90.40
15630;DHT22;7914;50.842;0.166;2023-04-12T03:02:03;8.00;90.20
15630;DHT22;7914;50.842;0.166;2023-04-12T03:04:29;7.90;90.20
15630;DHT22;7914;50.842;0.166;2023-04-12T03:06:55;7.90;89.50
15630;DHT22;7914;50.842;0.166;2023-04-12T03:09:21;7.90;90.70
15630;DHT22;7914;50.842;0.166;2023-04-12T03:11:47;7.70;90.40
15630;DHT22;7914;50.842;0.166;2023-04-12T03:14:13;7.60;91.40
15630;DHT22;7914;50.842;0.166;2023-04-12T03:16:39;7.50;91.50
15630;DHT22;7914;50.842;0.166;2023-04-12T03:19:05;7.50;92.00
15630;DHT22;7914;50.842;0.166;2023-04-12T03:21:31;7.50;91.80
15630;DHT22;7914;50.842;0.166;2023-04-12T03:23:58;7.40;92.30
15630;DHT22;7914;50.842;0.166;2023-04-12T03:26:24;7.20;93.20
15630;DHT22;7914;50.842;0.166;2023-04-12T03:28:58;7.20;93.70
15630;DHT22;7914;50.842;0.166;2023-04-12T03:31:24;7.10;94.00
15630;DHT22;7914;50.842;0.166;2023-04-12T03:33:52;7.10;93.80
15630;DHT22;7914;50.842;0.166;2023-04-12T03:36:18;7.10;94.30
15630;DHT22;7914;50.842;0.166;2023-04-12T03:38:45;7.10;94.10
15630;DHT22;7914;50.842;0.166;2023-04-12T03:41:11;7.00;94.60
15630;DHT22;7914;50.842;0.166;2023-04-12T03:43:40;7.10;93.80
15630;DHT22;7914;50.842;0.166;2023-04-12T03:46:07;7.00;94.40
15630;DHT22;7914;50.842;0.166;2023-04-12T03:48:33;7.10;93.80
15630;DHT22;7914;50.842;0.166;2023-04-12T03:50:59;7.10;93.40
15630;DHT22;7914;50.842;0.166;2023-04-12T03:53:32;7.00;92.90
15630;DHT22;7914;50.842;0.166;2023-04-12T03:55:57;7.10;91.80
15630;DHT22;7914;50.842;0.166;2023-04-12T03:58:23;7.10;91.50
15630;DHT22;7914;50.842;0.166;2023-04-12T04:00:48;7.10;91.20
15630;DHT22;7914;50.842;0.166;2023-04-12T04:03:15;7.10;91.10
15630;DHT22;7914;50.842;0.166;2023-04-12T04:05:41;7.00;92.00
15630;DHT22;7914;50.842;0.166;2023-04-12T04:08:07;7.00;92.50
15630;DHT22;7914;50.842;0.166;2023-04-12T04:10:33;6.90;93.10
15630;DHT22;7914;50.842;0.166;2023-04-12T04:12:59;6.90;93.10
15630;DHT22;7914;50.842;0.166;2023-04-12T04:15:25;6.70;94.20
15630;DHT22;7914;50.842;0.166;2023-04-12T04:17:51;6.70;94.50
15630;DHT22;7914;50.842;0.166;2023-04-12T04:20:20;6.60;95.40
15630;DHT22;7914;50.842;0.166;2023-04-12T04:22:46;6.50;97.20
15630;DHT22;7914;50.842;0.166;2023-04-12T04:25:17;6.40;98.40
15630;DHT22;7914;50.842;0.166;2023-04-12T04:27:44;6.40;100.00
15630;DHT22;7914;50.842;0.166;2023-04-12T04:30:11;6.30;100.00
15630;DHT22;7914;50.842;0.166;2023-04-12T04:32:38;6.10;100.00
15630;DHT22;7914;50.842;0.166;2023-04-12T04:35:04;6.00;100.00
15630;DHT22;7914;50.842;0.166;2023-04-12T04:37:30;5.90;100.00
15630;DHT22;7914;50.842;0.166;2023-04-12T04:39:56;5.80;100.00
15630;DHT22;7914;50.842;0.166;2023-04-12T04:42:24;5.70;100.00
15630;DHT22;7914;50.842;0.166;2023-04-12T04:44:50;5.60;100.00
15630;DHT22;7914;50.842;0.166;2023-04-12T04:47:16;5.50;100.00
15630;DHT22;7914;50.842;0.166;2023-04-12T04:49:43;5.40;100.00
15630;DHT22;7914;50.842;0.166;2023-04-12T04:52:09;5.30;100.00
15630;DHT22;7914;50.842;0.166;2023-04-12T04:54:35;5.30;100.00
15630;DHT22;7914;50.842;0.166;2023-04-12T04:57:01;5.20;100.00
15630;DHT22;7914;50.842;0.166;2023-04-12T04:59:27;5.10;100.00
15630;DHT22;7914;50.842;0.166;2023-04-12T05:01:53;5.10;100.00
15630;DHT22;7914;50.842;0.166;2023-04-12T05:04:18;5.00;100.00
15630;DHT22;7914;50.842;0.166;2023-04-12T05:06:45;5.00;100.00
15630;DHT22;7914;50.842;0.166;2023-04-12T05:09:10;5.10;100.00
15630;DHT22;7914;50.842;0.166;2023-04-12T05:11:36;5.10;100.00
15630;DHT22;7914;50.842;0.166;2023-04-12T05:14:02;5.20;100.00
15630;DHT22;7914;50.842;0.166;2023-04-12T05:16:28;5.20;100.00
15630;DHT22;7914;50.842;0.166;2023-04-12T05:18:53;5.40;99.90
15630;DHT22;7914;50.842;0.166;2023-04-12T05:21:19;5.30;98.80
15630;DHT22;7914;50.842;0.166;2023-04-12T05:23:45;5.40;98.40
15630;DHT22;7914;50.842;0.166;2023-04-12T05:26:11;5.60;96.60
15630;DHT22;7914;50.842;0.166;2023-04-12T05:28:37;5.70;96.10
15630;DHT22;7914;50.842;0.166;2023-04-12T05:31:03;5.70;95.30
15630;DHT22;7914;50.842;0.166;2023-04-12T05:33:30;5.80;95.10
15630;DHT22;7914;50.842;0.166;2023-04-12T05:35:56;5.90;95.70
15630;DHT22;7914;50.842;0.166;2023-04-12T05:38:22;5.90;94.50
15630;DHT22;7914;50.842;0.166;2023-04-12T05:40:48;6.00;94.70
15630;DHT22;7914;50.842;0.166;2023-04-12T05:43:16;6.00;93.20
15630;DHT22;7914;50.842;0.166;2023-04-12T05:45:42;6.20;92.50
15630;DHT22;7914;50.842;0.166;2023-04-12T05:48:08;6.40;91.70
15630;DHT22;7914;50.842;0.166;2023-04-12T05:50:34;6.70;91.80
15630;DHT22;7914;50.842;0.166;2023-04-12T05:53:00;7.30;88.60
15630;DHT22;7914;50.842;0.166;2023-04-12T05:55:29;8.40;86.40
15630;DHT22;7914;50.842;0.166;2023-04-12T05:57:55;9.60;80.40
15630;DHT22;7914;50.842;0.166;2023-04-12T06:00:22;10.70;75.60
15630;DHT22;7914;50.842;0.166;2023-04-12T06:02:48;10.70;75.30
15630;DHT22;7914;50.842;0.166;2023-04-12T06:05:14;10.80;75.50
15630;DHT22;7914;50.842;0.166;2023-04-12T06:07:42;10.90;73.90
15630;DHT22;7914;50.842;0.166;2023-04-12T06:10:12;11.90;72.10
15630;DHT22;7914;50.842;0.166;2023-04-12T06:12:37;12.10;70.20
15630;DHT22;7914;50.842;0.166;2023-04-12T06:15:04;11.90;70.20
15630;DHT22;7914;50.842;0.166;2023-04-12T06:17:29;11.70;69.70
15630;DHT22;7914;50.842;0.166;2023-04-12T06:19:55;11.00;72.40
15630;DHT22;7914;50.842;0.166;2023-04-12T06:22:21;10.30;75.10
15630;DHT22;7914;50.842;0.166;2023-04-12T06:24:46;9.60;77.80
15630;DHT22;7914;50.842;0.166;2023-04-12T06:27:12;9.00;81.80
15630;DHT22;7914;50.842;0.166;2023-04-12T06:29:38;8.60;84.40
15630;DHT22;7914;50.842;0.166;2023-04-12T06:32:03;8.40;86.60
15630;DHT22;7914;50.842;0.166;2023-04-12T06:34:29;8.40;87.80
15630;DHT22;7914;50.842;0.166;2023-04-12T06:36:55;8.10;89.40
15630;DHT22;7914;50.842;0.166;2023-04-12T06:39:22;8.10;90.60
15630;DHT22;7914;50.842;0.166;2023-04-12T06:41:47;8.00;90.80
15630;DHT22;7914;50.842;0.166;2023-04-12T06:44:15;8.00;91.10
15630;DHT22;7914;50.842;0.166;2023-04-12T06:46:41;8.00;90.50
15630;DHT22;7914;50.842;0.166;2023-04-12T06:49:07;8.00;90.30
15630;DHT22;7914;50.842;0.166;2023-04-12T06:51:32;8.00;90.80
15630;DHT22;7914;50.842;0.166;2023-04-12T06:54:00;8.20;90.70
15630;DHT22;7914;50.842;0.166;2023-04-12T06:56:26;8.30;90.40
15630;DHT22;7914;50.842;0.166;2023-04-12T06:58:52;8.50;89.50
15630;DHT22;7914;50.842;0.166;2023-04-12T07:01:17;8.50;89.00
15630;DHT22;7914;50.842;0.166;2023-04-12T07:03:43;8.40;89.20
15630;DHT22;7914;50.842;0.166;2023-04-12T07:06:09;8.30;88.80
15630;DHT22;7914;50.842;0.166;2023-04-12T07:08:35;8.30;89.50
15630;DHT22;7914;50.842;0.166;2023-04-12T07:11:01;8.20;90.90
15630;DHT22;7914;50.842;0.166;2023-04-12T07:13:27;8.30;90.20
15630;DHT22;7914;50.842;0.166;2023-04-12T07:15:53;8.40;90.60
15630;DHT22;7914;50.842;0.166;2023-04-12T07:18:19;8.60;90.40
15630;DHT22;7914;50.842;0.166;2023-04-12T07:20:49;8.50;91.00
15630;DHT22;7914;50.842;0.166;2023-04-12T07:23:17;8.50;90.30
15630;DHT22;7914;50.842;0.166;2023-04-12T07:25:43;8.40;91.70
15630;DHT22;7914;50.842;0.166;2023-04-12T07:28:09;8.60;92.80
15630;DHT22;7914;50.842;0.166;2023-04-12T07:30:35;9.20;92.90
15630;DHT22;7914;50.842;0.166;2023-04-12T07:33:06;9.80;91.70
15630;DHT22;7914;50.842;0.166;2023-04-12T07:35:32;10.00;87.80
15630;DHT22;7914;50.842;0.166;2023-04-12T07:37:58;9.70;86.60
15630;DHT22;7914;50.842;0.166;2023-04-12T07:40:25;8.80;90.30
15630;DHT22;7914;50.842;0.166;2023-04-12T07:42:51;8.10;92.50
15630;DHT22;7914;50.842;0.166;2023-04-12T07:45:18;7.70;94.30
15630;DHT22;7914;50.842;0.166;2023-04-12T07:47:44;7.50;96.70
15630;DHT22;7914;50.842;0.166;2023-04-12T07:50:10;7.60;97.40
15630;DHT22;7914;50.842;0.166;2023-04-12T07:52:36;7.80;97.90
15630;DHT22;7914;50.842;0.166;2023-04-12T07:55:01;7.70;97.30
15630;DHT22;7914;50.842;0.166;2023-04-12T07:57:27;7.60;98.30
15630;DHT22;7914;50.842;0.166;2023-04-12T07:59:53;7.60;98.50
15630;DHT22;7914;50.842;0.166;2023-04-12T08:02:18;7.60;97.30
15630;DHT22;7914;50.842;0.166;2023-04-12T08:04:52;7.20;98.60
15630;DHT22;7914;50.842;0.166;2023-04-12T08:07:19;7.10;100.00
15630;DHT22;7914;50.842;0.166;2023-04-12T08:09:47;6.90;98.80
15630;DHT22;7914;50.842;0.166;2023-04-12T08:12:12;6.80;100.00
15630;DHT22;7914;50.842;0.166;2023-04-12T08:14:38;6.90;100.00
15630;DHT22;7914;50.842;0.166;2023-04-12T08:17:04;6.90;100.00
15630;DHT22;7914;50.842;0.166;2023-04-12T08:19:30;7.00;100.00
15630;DHT22;7914;50.842;0.166;2023-04-12T08:21:55;7.40;100.00
15630;DHT22;7914;50.842;0.166;2023-04-12T08:24:21;7.80;100.00
15630;DHT22;7914;50.842;0.166;2023-04-12T08:26:47;8.30;100.00
15630;DHT22;7914;50.842;0.166;2023-04-12T08:29:13;8.70;99.80
15630;DHT22;7914;50.842;0.166;2023-04-12T08:31:39;9.00;95.80
15630;DHT22;7914;50.842;0.166;2023-04-12T08:34:04;9.30;95.10
15630;DHT22;7914;50.842;0.166;2023-04-12T08:36:30;9.40;94.20
15630;DHT22;7914;50.842;0.166;2023-04-12T08:38:59;9.50;93.30
15630;DHT22;7914;50.842;0.166;2023-04-12T08:41:27;9.60;92.10
15630;DHT22;7914;50.842;0.166;2023-04-12T08:43:53;9.70;90.70
15630;DHT22;7914;50.842;0.166;2023-04-12T08:46:22;9.80;89.50
15630;DHT22;7914;50.842;0.166;2023-04-12T08:48:49;9.90;90.00
15630;DHT22;7914;50.842;0.166;2023-04-12T08:51:19;9.90;87.20
15630;DHT22;7914;50.842;0.166;2023-04-12T08:53:46;9.90;85.50
15630;DHT22;7914;50.842;0.166;2023-04-12T08:56:12;10.20;87.50
15630;DHT22;7914;50.842;0.166;2023-04-12T08:58:44;10.30;86.20
15630;DHT22;7914;50.842;0.166;2023-04-12T09:01:11;10.40;85.00
15630;DHT22;7914;50.842;0.166;2023-04-12T09:03:41;10.60;86.30
15630;DHT22;7914;50.842;0.166;2023-04-12T09:06:08;10.80;84.00
15630;DHT22;7914;50.842;0.166;2023-04-12T09:08:34;10.20;85.40
15630;DHT22;7914;50.842;0.166;2023-04-12T09:11:00;9.30;87.60
15630;DHT22;7914;50.842;0.166;2023-04-12T09:13:35;9.00;89.50
15630;DHT22;7914;50.842;0.166;2023-04-12T09:16:03;9.20;91.40
15630;DHT22;7914;50.842;0.166;2023-04-12T09:18:29;9.70;89.30
15630;DHT22;7914;50.842;0.166;2023-04-12T09:21:08;9.90;84.70
15630;DHT22;7914;50.842;0.166;2023-04-12T09:23:36;9.70;83.80
15630;DHT22;7914;50.842;0.166;2023-04-12T09:26:02;9.40;84.20
15630;DHT22;7914;50.842;0.166;2023-04-12T09:28:29;9.00;85.20
15630;DHT22;7914;50.842;0.166;2023-04-12T09:30:58;8.70;88.60
15630;DHT22;7914;50.842;0.166;2023-04-12T09:33:35;9.00;91.30
15630;DHT22;7914;50.842;0.166;2023-04-12T09:36:06;9.60;91.40
15630;DHT22;7914;50.842;0.166;2023-04-12T09:38:37;10.00;87.50
15630;DHT22;7914;50.842;0.166;2023-04-12T09:41:20;10.20;88.60
15630;DHT22;7914;50.842;0.166;2023-04-12T09:43:55;10.60;87.80
15630;DHT22;7914;50.842;0.166;2023-04-12T09:46:20;10.80;87.90
15630;DHT22;7914;50.842;0.166;2023-04-12T09:48:57;10.80;86.60
15630;DHT22;7914;50.842;0.166;2023-04-12T09:51:31;10.90;84.60
15630;DHT22;7914;50.842;0.166;2023-04-12T09:53:58;11.00;84.60
15630;DHT22;7914;50.842;0.166;2023-04-12T09:56:28;11.00;83.70
15630;DHT22;7914;50.842;0.166;2023-04-12T09:58:54;11.30;81.30
15630;DHT22;7914;50.842;0.166;2023-04-12T10:01:22;11.40;81.50
15630;DHT22;7914;50.842;0.166;2023-04-12T10:03:48;11.80;82.00
15630;DHT22;7914;50.842;0.166;2023-04-12T10:06:14;11.40;77.90
15630;DHT22;7914;50.842;0.166;2023-04-12T10:08:41;11.10;77.30
15630;DHT22;7914;50.842;0.166;2023-04-12T10:11:07;10.50;79.00
15630;DHT22;7914;50.842;0.166;2023-04-12T10:13:35;10.10;80.50
15630;DHT22;7914;50.842;0.166;2023-04-12T10:16:03;9.60;85.20
15630;DHT22;7914;50.842;0.166;2023-04-12T10:18:30;9.20;91.00
15630;DHT22;7914;50.842;0.166;2023-04-12T10:20:59;9.70;90.50
15630;DHT22;7914;50.842;0.166;2023-04-12T10:23:25;10.00;89.90
15630;DHT22;7914;50.842;0.166;2023-04-12T10:25:51;10.40;88.40
15630;DHT22;7914;50.842;0.166;2023-04-12T10:28:19;10.80;87.70
15630;DHT22;7914;50.842;0.166;2023-04-12T10:30:46;10.90;87.00
15630;DHT22;7914;50.842;0.166;2023-04-12T10:33:18;11.00;83.30
15630;DHT22;7914;50.842;0.166;2023-04-12T10:38:19;11.10;78.30
15630;DHT22;7914;50.842;0.166;2023-04-12T10:41:17;11.10;75.40
15630;DHT22;7914;50.842;0.166;2023-04-12T10:43:43;11.30;76.40
15630;DHT22;7914;50.842;0.166;2023-04-12T10:49:16;11.30;73.80
15630;DHT22;7914;50.842;0.166;2023-04-12T10:54:29;11.40;72.80
15630;DHT22;7914;50.842;0.166;2023-04-12T10:56:55;11.30;72.70
15630;DHT22;7914;50.842;0.166;2023-04-12T10:59:22;11.30;73.60
15630;DHT22;7914;50.842;0.166;2023-04-12T11:02:07;11.50;76.50
15630;DHT22;7914;50.842;0.166;2023-04-12T11:04:34;11.80;72.80
15630;DHT22;7914;50.842;0.166;2023-04-12T11:07:07;11.70;75.10
15630;DHT22;7914;50.842;0.166;2023-04-12T11:19:36;11.80;70.40
15630;DHT22;7914;50.842;0.166;2023-04-12T11:22:06;11.70;74.10
15630;DHT22;7914;50.842;0.166;2023-04-12T11:24:32;11.80;75.40
15630;DHT22;7914;50.842;0.166;2023-04-12T11:26:59;11.80;75.50
15630;DHT22;7914;50.842;0.166;2023-04-12T11:29:26;11.90;73.20
15630;DHT22;7914;50.842;0.166;2023-04-12T11:31:52;11.80;74.70
15630;DHT22;7914;50.842;0.166;2023-04-12T11:34:19;11.70;75.80
15630;DHT22;7914;50.842;0.166;2023-04-12T11:36:46;11.80;75.50
15630;DHT22;7914;50.842;0.166;2023-04-12T11:39:12;11.90;74.30
15630;DHT22;7914;50.842;0.166;2023-04-12T11:41:48;11.60;74.00
15630;DHT22;7914;50.842;0.166;2023-04-12T11:44:14;11.60;75.30
15630;DHT22;7914;50.842;0.166;2023-04-12T11:46:46;11.50;75.60
15630;DHT22;7914;50.842;0.166;2023-04-12T11:49:19;11.40;77.60
15630;DHT22;7914;50.842;0.166;2023-04-12T11:51:45;11.70;78.10
15630;DHT22;7914;50.842;0.166;2023-04-12T11:54:12;11.60;75.80
15630;DHT22;7914;50.842;0.166;2023-04-12T11:56:38;11.90;74.70
15630;DHT22;7914;50.842;0.166;2023-04-12T11:59:05;12.30;74.50
15630;DHT22;7914;50.842;0.166;2023-04-12T12:01:32;12.50;72.30
15630;DHT22;7914;50.842;0.166;2023-04-12T12:03:59;12.30;72.00
15630;DHT22;7914;50.842;0.166;2023-04-12T12:06:26;12.00;72.10
15630;DHT22;7914;50.842;0.166;2023-04-12T12:08:52;11.90;70.70
15630;DHT22;7914;50.842;0.166;2023-04-12T12:11:23;11.80;71.60
15630;DHT22;7914;50.842;0.166;2023-04-12T12:13:50;12.00;72.60
15630;DHT22;7914;50.842;0.166;2023-04-12T12:16:19;12.00;72.00
15630;DHT22;7914;50.842;0.166;2023-04-12T12:18:48;11.90;72.40
15630;DHT22;7914;50.842;0.166;2023-04-12T12:21:14;11.90;73.80
15630;DHT22;7914;50.842;0.166;2023-04-12T12:23:44;12.00;74.60
15630;DHT22;7914;50.842;0.166;2023-04-12T12:26:21;12.00;71.90
15630;DHT22;7914;50.842;0.166;2023-04-12T12:28:51;12.20;73.60
15630;DHT22;7914;50.842;0.166;2023-04-12T12:31:25;12.20;71.10
15630;DHT22;7914;50.842;0.166;2023-04-12T12:33:56;12.10;70.40
15630;DHT22;7914;50.842;0.166;2023-04-12T12:36:35;12.10;70.50
15630;DHT22;7914;50.842;0.166;2023-04-12T12:39:10;12.20;70.80
15630;DHT22;7914;50.842;0.166;2023-04-12T12:41:37;12.20;73.40
15630;DHT22;7914;50.842;0.166;2023-04-12T12:44:03;12.20;71.90
15630;DHT22;7914;50.842;0.166;2023-04-12T12:46:29;12.20;72.60
15630;DHT22;7914;50.842;0.166;2023-04-12T12:48:55;12.50;73.40
15630;DHT22;7914;50.842;0.166;2023-04-12T12:51:21;12.40;72.90
15630;DHT22;7914;50.842;0.166;2023-04-12T12:53:47;12.50;74.20
15630;DHT22;7914;50.842;0.166;2023-04-12T12:56:13;12.40;74.40
15630;DHT22;7914;50.842;0.166;2023-04-12T12:58:40;12.20;75.40
15630;DHT22;7914;50.842;0.166;2023-04-12T13:01:06;12.40;74.00
15630;DHT22;7914;50.842;0.166;2023-04-12T13:03:32;12.10;73.30
15630;DHT22;7914;50.842;0.166;2023-04-12T13:05:58;11.80;72.50
15630;DHT22;7914;50.842;0.166;2023-04-12T13:08:25;11.60;73.20
15630;DHT22;7914;50.842;0.166;2023-04-12T13:10:51;11.50;74.20
15630;DHT22;7914;50.842;0.166;2023-04-12T13:13:18;11.80;75.40
15630;DHT22;7914;50.842;0.166;2023-04-12T13:15:44;11.70;71.20
15630;DHT22;7914;50.842;0.166;2023-04-12T13:18:13;11.80;73.40
15630;DHT22;7914;50.842;0.166;2023-04-12T13:20:41;12.00;69.90
15630;DHT22;7914;50.842;0.166;2023-04-12T13:23:07;12.00;70.70
15630;DHT22;7914;50.842;0.166;2023-04-12T13:25:34;12.00;70.60
15630;DHT22;7914;50.842;0.166;2023-04-12T13:27:59;12.10;70.60
15630;DHT22;7914;50.842;0.166;2023-04-12T13:30:25;12.10;66.50
15630;DHT22;7914;50.842;0.166;2023-04-12T13:32:52;11.70;68.80
15630;DHT22;7914;50.842;0.166;2023-04-12T13:35:19;11.70;68.90
15630;DHT22;7914;50.842;0.166;2023-04-12T13:37:45;11.50;70.50
15630;DHT22;7914;50.842;0.166;2023-04-12T13:40:10;11.60;70.40
15630;DHT22;7914;50.842;0.166;2023-04-12T13:42:36;11.50;70.40
15630;DHT22;7914;50.842;0.166;2023-04-12T13:45:02;11.50;71.00
15630;DHT22;7914;50.842;0.166;2023-04-12T13:47:29;11.60;72.50
15630;DHT22;7914;50.842;0.166;2023-04-12T13:49:55;11.80;69.10
15630;DHT22;7914;50.842;0.166;2023-04-12T13:52:21;11.80;72.40
15630;DHT22;7914;50.842;0.166;2023-04-12T13:54:46;11.80;68.70
15630;DHT22;7914;50.842;0.166;2023-04-12T13:57:13;11.50;70.30
15630;DHT22;7914;50.842;0.166;2023-04-12T13:59:38;11.30;73.20
15630;DHT22;7914;50.842;0.166;2023-04-12T14:02:04;11.40;73.50
15630;DHT22;7914;50.842;0.166;2023-04-12T14:04:30;11.30;72.60
15630;DHT22;7914;50.842;0.166;2023-04-12T14:06:56;11.40;74.20
15630;DHT22;7914;50.842;0.166;2023-04-12T14:09:23;11.70;73.40
15630;DHT22;7914;50.842;0.166;2023-04-12T14:11:50;11.50;72.50
15630;DHT22;7914;50.842;0.166;2023-04-12T14:14:16;11.40;73.50
15630;DHT22;7914;50.842;0.166;2023-04-12T14:16:42;11.50;71.80
15630;DHT22;7914;50.842;0.166;2023-04-12T14:19:09;11.20;69.00
15630;DHT22;7914;50.842;0.166;2023-04-12T14:21:35;11.20;70.30
15630;DHT22;7914;50.842;0.166;2023-04-12T14:24:02;11.20;70.90
15630;DHT22;7914;50.842;0.166;2023-04-12T14:26:28;10.90;71.70
15630;DHT22;7914;50.842;0.166;2023-04-12T14:28:53;10.80;71.50
15630;DHT22;7914;50.842;0.166;2023-04-12T14:31:20;10.30;82.70
15630;DHT22;7914;50.842;0.166;2023-04-12T14:33:46;8.90;87.80
15630;DHT22;7914;50.842;0.166;2023-04-12T14:36:11;8.40;91.10
15630;DHT22;7914;50.842;0.166;2023-04-12T14:38:37;8.20;92.20
15630;DHT22;7914;50.842;0.166;2023-04-12T14:41:06;8.20;93.70
15630;DHT22;7914;50.842;0.166;2023-04-12T14:43:33;8.30;92.40
15630;DHT22;7914;50.842;0.166;2023-04-12T14:46:26;8.40;92.40
15630;DHT22;7914;50.842;0.166;2023-04-12T14:48:53;9.00;89.90
15630;DHT22;7914;50.842;0.166;2023-04-12T14:51:19;9.30;89.00
15630;DHT22;7914;50.842;0.166;2023-04-12T14:53:44;9.30;87.10
15630;DHT22;7914;50.842;0.166;2023-04-12T14:56:24;9.00;87.00
15630;DHT22;7914;50.842;0.166;2023-04-12T14:58:52;8.70;87.10
15630;DHT22;7914;50.842;0.166;2023-04-12T15:01:19;8.40;86.50
15630;DHT22;7914;50.842;0.166;2023-04-12T15:03:45;8.20;87.00
15630;DHT22;7914;50.842;0.166;2023-04-12T15:06:11;8.20;89.40
15630;DHT22;7914;50.842;0.166;2023-04-12T15:08:38;8.20;91.70
15630;DHT22;7914;50.842;0.166;2023-04-12T15:11:10;8.40;90.70
15630;DHT22;7914;50.842;0.166;2023-04-12T15:13:40;8.70;89.30
15630;DHT22;7914;50.842;0.166;2023-04-12T15:16:10;8.90;87.80
15630;DHT22;7914;50.842;0.166;2023-04-12T15:18:39;9.10;86.80
15630;DHT22;7914;50.842;0.166;2023-04-12T15:21:07;9.10;83.40
15630;DHT22;7914;50.842;0.166;2023-04-12T15:23:35;9.20;81.90
15630;DHT22;7914;50.842;0.166;2023-04-12T15:26:01;9.10;82.50
15630;DHT22;7914;50.842;0.166;2023-04-12T15:28:27;9.30;82.50
15630;DHT22;7914;50.842;0.166;2023-04-12T15:30:53;9.30;82.80
15630;DHT22;7914;50.842;0.166;2023-04-12T15:33:20;9.20;80.30
15630;DHT22;7914;50.842;0.166;2023-04-12T15:35:48;9.20;81.30
15630;DHT22;7914;50.842;0.166;2023-04-12T15:38:14;9.20;82.20
15630;DHT22;7914;50.842;0.166;2023-04-12T15:40:41;9.10;81.80
15630;DHT22;7914;50.842;0.166;2023-04-12T15:43:07;9.10;83.80
15630;DHT22;7914;50.842;0.166;2023-04-12T15:45:33;9.00;85.30
15630;DHT22;7914;50.842;0.166;2023-04-12T15:47:58;9.00;84.20
15630;DHT22;7914;50.842;0.166;2023-04-12T15:50:24;9.10;84.80
15630;DHT22;7914;50.842;0.166;2023-04-12T15:52:50;9.40;83.90
15630;DHT22;7914;50.842;0.166;2023-04-12T15:55:18;9.50;82.80
15630;DHT22;7914;50.842;0.166;2023-04-12T15:57:46;9.40;83.50
15630;DHT22;7914;50.842;0.166;2023-04-12T16:00:13;9.40;82.40
15630;DHT22;7914;50.842;0.166;2023-04-12T16:02:49;9.50;83.40
15630;DHT22;7914;50.842;0.166;2023-04-12T16:05:18;9.40;82.80
15630;DHT22;7914;50.842;0.166;2023-04-12T16:07:44;9.30;82.80
15630;DHT22;7914;50.842;0.166;2023-04-12T16:10:10;9.20;82.90
15630;DHT22;7914;50.842;0.166;2023-04-12T16:12:37;9.20;83.30
15630;DHT22;7914;50.842;0.166;2023-04-12T16:15:03;9.20;83.50
15630;DHT22;7914;50.842;0.166;2023-04-12T16:17:29;9.10;83.90
15630;DHT22;7914;50.842;0.166;2023-04-12T16:19:54;9.00;84.60
15630;DHT22;7914;50.842;0.166;2023-04-12T16:22:20;9.10;86.10
15630;DHT22;7914;50.842;0.166;2023-04-12T16:24:47;9.10;85.30
15630;DHT22;7914;50.842;0.166;2023-04-12T16:27:12;9.10;85.90